sensor_id;sensor_type;location;lat;lon;timestamp;temperature;humidity
54898;DHT22;40800;52.704;6.398;2023-12-20T00:00:54;8.80;99.90
54898;DHT22;40800;52.704;6.398;2023-12-20T00:03:19;9.00;99.90
54898;DHT22;40800;52.704;6.398;2023-12-20T00:05:45;8.30;99.90
54898;DHT22;40800;52.704;6.398;2023-12-20T00:08:11;8.90;99.90
54898;DHT22;40800;52.704;6.398;2023-12-20T00:10:36;8.60;99.90
54898;DHT22;40800;52.704;6.398;2023-12-20T00:13:02;8.40;99.90
54898;DHT22;40800;52.704;6.398;2023-12-20T00:15:28;9.10;99.90
54898;DHT22;40800;52.704;6.398;2023-12-20T00:17:53;9.00;99.90
54898;DHT22;40800;52.704;6.398;2023-12-20T00:20:19;8.20;99.90
54898;DHT22;40800;52.704;6.398;2023-12-20T00:29:40;8.90;99.90
54898;DHT22;40800;52.704;6.398;2023-12-20T00:32:08;8.80;99.90
54898;DHT22;40800;52.704;6.398;2023-12-20T00:34:33;8.10;99.90
54898;DHT22;40800;52.704;6.398;2023-12-20T00:36:59;8.60;99.90
54898;DHT22;40800;52.704;6.398;2023-12-20T00:39:24;8.10;99.90
54898;DHT22;40800;52.704;6.398;2023-12-20T00:41:50;8.80;99.90
54898;DHT22;40800;52.704;6.398;2023-12-20T00:44:15;8.70;99.90
54898;DHT22;40800;52.704;6.398;2023-12-20T00:46:41;8.20;99.90
54898;DHT22;40800;52.704;6.398;2023-12-20T00:49:06;8.10;99.90
54898;DHT22;40800;52.704;6.398;2023-12-20T00:51:32;8.20;99.90
54898;DHT22;40800;52.704;6.398;2023-12-20T00:53:58;8.40;99.90
54898;DHT22;40800;52.704;6.398;2023-12-20T00:56:23;8.00;99.90
54898;DHT22;40800;52.704;6.398;2023-12-20T00:58:49;8.50;99.90
54898;DHT22;40800;52.704;6.398;2023-12-20T01:01:15;8.30;99.90
54898;DHT22;40800;52.704;6.398;2023-12-20T01:03:41;8.00;99.90
54898;DHT22;40800;52.704;6.398;2023-12-20T01:06:06;8.10;99.90
54898;DHT22;40800;52.704;6.398;2023-12-20T01:08:32;8.20;99.90
54898;DHT22;40800;52.704;6.398;2023-12-20T01:10:57;7.90;99.90
54898;DHT22;40800;52.704;6.398;2023-12-20T01:13:23;8.40;99.90
54898;DHT22;40800;52.704;6.398;2023-12-20T01:15:48;8.10;99.90
54898;DHT22;40800;52.704;6.398;2023-12-20T01:18:14;8.10;99.90
54898;DHT22;40800;52.704;6.398;2023-12-20T01:20:40;8.50;99.90
54898;DHT22;40800;52.704;6.398;2023-12-20T01:23:05;8.60;99.90
54898;DHT22;40800;52.704;6.398;2023-12-20T01:25:31;8.20;99.90
54898;DHT22;40800;52.704;6.398;2023-12-20T01:27:56;8.70;99.90
54898;DHT22;40800;52.704;6.398;2023-12-20T01:30:22;8.30;99.90
54898;DHT22;40800;52.704;6.398;2023-12-20T01:32:48;8.40;99.90
54898;DHT22;40800;52.704;6.398;2023-12-20T01:35:13;8.40;99.90
54898;DHT22;40800;52.704;6.398;2023-12-20T01:37:40;8.30;99.90
54898;DHT22;40800;52.704;6.398;2023-12-20T01:40:05;8.80;99.90
54898;DHT22;40800;52.704;6.398;2023-12-20T01:42:31;8.30;99.90
54898;DHT22;40800;52.704;6.398;2023-12-20T01:44:57;8.30;99.90
54898;DHT22;40800;52.704;6.398;2023-12-20T01:47:22;8.40;99.90
54898;DHT22;40800;52.704;6.398;2023-12-20T01:49:49;8.70;99.90
54898;DHT22;40800;52.704;6.398;2023-12-20T01:52:14;8.80;99.90
54898;DHT22;40800;52.704;6.398;2023-12-20T01:54:40;8.70;99.90
54898;DHT22;40800;52.704;6.398;2023-12-20T01:57:08;8.80;99.90
54898;DHT22;40800;52.704;6.398;2023-12-20T01:59:34;8.30;99.90
54898;DHT22;40800;52.704;6.398;2023-12-20T02:02:00;8.70;99.90
54898;DHT22;40800;52.704;6.398;2023-12-20T02:04:26;8.70;99.90
54898;DHT22;40800;52.704;6.398;2023-12-20T02:06:52;8.40;99.90
54898;DHT22;40800;52.704;6.398;2023-12-20T02:09:18;8.90;99.90
54898;DHT22;40800;52.704;6.398;2023-12-20T02:11:44;8.90;99.90
54898;DHT22;40800;52.704;6.398;2023-12-20T02:14:10;8.80;99.90
54898;DHT22;40800;52.704;6.398;2023-12-20T02:16:35;8.80;99.90
54898;DHT22;40800;52.704;6.398;2023-12-20T02:19:01;8.90;99.90
54898;DHT22;40800;52.704;6.398;2023-12-20T02:21:33;8.50;99.90
54898;DHT22;40800;52.704;6.398;2023-12-20T02:24:02;8.50;99.90
54898;DHT22;40800;52.704;6.398;2023-12-20T02:26:27;8.80;99.90
54898;DHT22;40800;52.704;6.398;2023-12-20T02:28:54;8.70;99.90
54898;DHT22;40800;52.704;6.398;2023-12-20T02:31:23;8.70;99.90
54898;DHT22;40800;52.704;6.398;2023-12-20T02:33:49;8.40;99.90
54898;DHT22;40800;52.704;6.398;2023-12-20T02:36:14;8.80;99.90
54898;DHT22;40800;52.704;6.398;2023-12-20T02:38:40;9.10;99.90
54898;DHT22;40800;52.704;6.398;2023-12-20T02:41:05;8.60;99.90
54898;DHT22;40800;52.704;6.398;2023-12-20T02:43:31;8.50;99.90
54898;DHT22;40800;52.704;6.398;2023-12-20T02:45:57;8.60;99.90
54898;DHT22;40800;52.704;6.398;2023-12-20T02:48:22;8.60;99.90
54898;DHT22;40800;52.704;6.398;2023-12-20T02:50:48;8.90;99.90
54898;DHT22;40800;52.704;6.398;2023-12-20T02:53:14;8.50;99.90
54898;DHT22;40800;52.704;6.398;2023-12-20T02:55:40;8.80;99.90
54898;DHT22;40800;52.704;6.398;2023-12-20T02:58:06;8.80;99.90
54898;DHT22;40800;52.704;6.398;2023-12-20T03:00:31;8.90;99.90
54898;DHT22;40800;52.704;6.398;2023-12-20T03:02:57;8.50;99.90
54898;DHT22;40800;52.704;6.398;2023-12-20T03:05:25;8.60;99.90
54898;DHT22;40800;52.704;6.398;2023-12-20T03:07:50;8.60;99.90
54898;DHT22;40800;52.704;6.398;2023-12-20T03:10:16;8.90;99.90
54898;DHT22;40800;52.704;6.398;2023-12-20T03:12:42;8.90;99.90
54898;DHT22;40800;52.704;6.398;2023-12-20T03:15:07;8.60;99.90
54898;DHT22;40800;52.704;6.398;2023-12-20T03:17:33;8.50;99.90
54898;DHT22;40800;52.704;6.398;2023-12-20T03:19:59;8.40;99.90
54898;DHT22;40800;52.704;6.398;2023-12-20T03:22:24;8.50;99.90
54898;DHT22;40800;52.704;6.398;2023-12-20T03:24:50;8.50;99.90
54898;DHT22;40800;52.704;6.398;2023-12-20T03:27:15;8.50;99.90
54898;DHT22;40800;52.704;6.398;2023-12-20T03:29:41;8.60;99.90
54898;DHT22;40800;52.704;6.398;2023-12-20T03:32:06;9.00;99.90
54898;DHT22;40800;52.704;6.398;2023-12-20T03:34:33;9.00;99.90
54898;DHT22;40800;52.704;6.398;2023-12-20T03:36:59;8.60;99.90
54898;DHT22;40800;52.704;6.398;2023-12-20T03:39:24;8.70;99.90
54898;DHT22;40800;52.704;6.398;2023-12-20T03:41:50;8.80;99.90
54898;DHT22;40800;52.704;6.398;2023-12-20T03:44:16;8.60;99.90
54898;DHT22;40800;52.704;6.398;2023-12-20T03:46:41;9.30;99.90
54898;DHT22;40800;52.704;6.398;2023-12-20T03:49:07;8.80;99.90
54898;DHT22;40800;52.704;6.398;2023-12-20T03:51:32;9.20;99.90
54898;DHT22;40800;52.704;6.398;2023-12-20T03:53:58;8.90;99.90
54898;DHT22;40800;52.704;6.398;2023-12-20T03:56:23;9.30;99.90
54898;DHT22;40800;52.704;6.398;2023-12-20T03:58:49;8.90;99.90
54898;DHT22;40800;52.704;6.398;2023-12-20T04:01:14;9.10;99.90
54898;DHT22;40800;52.704;6.398;2023-12-20T04:03:40;9.30;99.90
54898;DHT22;40800;52.704;6.398;2023-12-20T04:06:05;9.20;99.90
54898;DHT22;40800;52.704;6.398;2023-12-20T04:08:31;8.80;99.90
54898;DHT22;40800;52.704;6.398;2023-12-20T04:10:57;8.80;99.90
54898;DHT22;40800;52.704;6.398;2023-12-20T04:13:22;8.70;99.90
54898;DHT22;40800;52.704;6.398;2023-12-20T04:15:48;8.90;99.90
54898;DHT22;40800;52.704;6.398;2023-12-20T04:18:15;9.00;99.90
54898;DHT22;40800;52.704;6.398;2023-12-20T04:20:41;9.00;99.90
54898;DHT22;40800;52.704;6.398;2023-12-20T04:23:06;8.90;99.90
54898;DHT22;40800;52.704;6.398;2023-12-20T04:25:32;8.90;99.90
54898;DHT22;40800;52.704;6.398;2023-12-20T04:27:57;9.10;99.90
54898;DHT22;40800;52.704;6.398;2023-12-20T04:30:23;8.80;99.90
54898;DHT22;40800;52.704;6.398;2023-12-20T04:32:48;9.20;99.90
54898;DHT22;40800;52.704;6.398;2023-12-20T04:35:14;9.00;99.90
54898;DHT22;40800;52.704;6.398;2023-12-20T04:37:40;9.00;99.90
54898;DHT22;40800;52.704;6.398;2023-12-20T04:40:06;9.20;99.90
54898;DHT22;40800;52.704;6.398;2023-12-20T04:42:32;8.90;99.90
54898;DHT22;40800;52.704;6.398;2023-12-20T04:44:58;9.10;99.90
54898;DHT22;40800;52.704;6.398;2023-12-20T04:47:24;8.80;99.90
54898;DHT22;40800;52.704;6.398;2023-12-20T04:49:49;9.10;99.90
54898;DHT22;40800;52.704;6.398;2023-12-20T04:52:15;9.00;99.90
54898;DHT22;40800;52.704;6.398;2023-12-20T04:54:40;8.90;99.90
54898;DHT22;40800;52.704;6.398;2023-12-20T04:57:06;9.10;99.90
54898;DHT22;40800;52.704;6.398;2023-12-20T04:59:31;9.10;99.90
54898;DHT22;40800;52.704;6.398;2023-12-20T05:01:57;9.10;99.90
54898;DHT22;40800;52.704;6.398;2023-12-20T05:04:23;8.90;99.90
54898;DHT22;40800;52.704;6.398;2023-12-20T05:06:48;8.90;99.90
54898;DHT22;40800;52.704;6.398;2023-12-20T05:09:15;8.90;99.90
54898;DHT22;40800;52.704;6.398;2023-12-20T05:11:40;9.10;99.90
54898;DHT22;40800;52.704;6.398;2023-12-20T05:14:06;9.00;99.90
54898;DHT22;40800;52.704;6.398;2023-12-20T05:16:32;9.00;99.90
54898;DHT22;40800;52.704;6.398;2023-12-20T05:18:58;9.30;99.90
54898;DHT22;40800;52.704;6.398;2023-12-20T05:21:26;9.30;99.90
54898;DHT22;40800;52.704;6.398;2023-12-20T05:23:51;9.10;99.90
54898;DHT22;40800;52.704;6.398;2023-12-20T05:26:17;9.10;99.90
54898;DHT22;40800;52.704;6.398;2023-12-20T05:28:42;9.10;99.90
54898;DHT22;40800;52.704;6.398;2023-12-20T05:31:08;9.10;99.90
54898;DHT22;40800;52.704;6.398;2023-12-20T05:33:34;9.40;99.90
54898;DHT22;40800;52.704;6.398;2023-12-20T05:36:00;9.30;99.90
54898;DHT22;40800;52.704;6.398;2023-12-20T05:38:25;9.10;99.90
54898;DHT22;40800;52.704;6.398;2023-12-20T05:40:51;9.30;99.90
54898;DHT22;40800;52.704;6.398;2023-12-20T05:43:16;9.30;99.90
54898;DHT22;40800;52.704;6.398;2023-12-20T05:45:42;9.40;99.90
54898;DHT22;40800;52.704;6.398;2023-12-20T05:48:08;9.50;99.90
54898;DHT22;40800;52.704;6.398;2023-12-20T05:50:33;9.40;99.90
54898;DHT22;40800;52.704;6.398;2023-12-20T05:53:00;9.30;99.90
54898;DHT22;40800;52.704;6.398;2023-12-20T05:55:25;9.40;99.90
54898;DHT22;40800;52.704;6.398;2023-12-20T05:57:51;9.50;99.90
54898;DHT22;40800;52.704;6.398;2023-12-20T06:00:17;9.40;99.90
54898;DHT22;40800;52.704;6.398;2023-12-20T06:02:43;9.30;99.90
54898;DHT22;40800;52.704;6.398;2023-12-20T06:05:09;9.40;99.90
54898;DHT22;40800;52.704;6.398;2023-12-20T06:07:34;9.20;99.90
54898;DHT22;40800;52.704;6.398;2023-12-20T06:10:00;9.50;99.90
54898;DHT22;40800;52.704;6.398;2023-12-20T06:12:25;9.30;99.90
54898;DHT22;40800;52.704;6.398;2023-12-20T06:14:52;9.40;99.90
54898;DHT22;40800;52.704;6.398;2023-12-20T06:17:18;9.40;99.90
54898;DHT22;40800;52.704;6.398;2023-12-20T06:19:43;9.20;99.90
54898;DHT22;40800;52.704;6.398;2023-12-20T06:22:10;9.30;99.90
54898;DHT22;40800;52.704;6.398;2023-12-20T06:24:36;9.50;99.90
54898;DHT22;40800;52.704;6.398;2023-12-20T06:27:02;9.40;99.90
54898;DHT22;40800;52.704;6.398;2023-12-20T06:29:28;9.40;99.90
54898;DHT22;40800;52.704;6.398;2023-12-20T06:31:53;9.30;99.90
54898;DHT22;40800;52.704;6.398;2023-12-20T06:34:19;9.30;99.90
54898;DHT22;40800;52.704;6.398;2023-12-20T06:36:44;9.30;99.90
54898;DHT22;40800;52.704;6.398;2023-12-20T06:39:10;9.30;99.90
54898;DHT22;40800;52.704;6.398;2023-12-20T06:41:38;9.50;99.90
54898;DHT22;40800;52.704;6.398;2023-12-20T06:44:03;9.40;99.90
54898;DHT22;40800;52.704;6.398;2023-12-20T06:46:29;9.50;99.90
54898;DHT22;40800;52.704;6.398;2023-12-20T06:48:55;9.60;99.90
54898;DHT22;40800;52.704;6.398;2023-12-20T06:51:20;9.60;99.90
54898;DHT22;40800;52.704;6.398;2023-12-20T06:53:46;9.50;99.90
54898;DHT22;40800;52.704;6.398;2023-12-20T06:56:11;9.70;99.90
54898;DHT22;40800;52.704;6.398;2023-12-20T06:58:37;9.70;99.90
54898;DHT22;40800;52.704;6.398;2023-12-20T07:01:03;9.70;99.90
54898;DHT22;40800;52.704;6.398;2023-12-20T07:03:30;9.50;99.90
54898;DHT22;40800;52.704;6.398;2023-12-20T07:05:55;9.60;99.90
54898;DHT22;40800;52.704;6.398;2023-12-20T07:08:21;9.50;99.90
54898;DHT22;40800;52.704;6.398;2023-12-20T07:10:46;9.50;99.90
54898;DHT22;40800;52.704;6.398;2023-12-20T07:13:12;9.60;99.90
54898;DHT22;40800;52.704;6.398;2023-12-20T07:15:38;9.70;99.90
54898;DHT22;40800;52.704;6.398;2023-12-20T07:18:04;9.70;99.90
54898;DHT22;40800;52.704;6.398;2023-12-20T07:20:30;9.50;99.90
54898;DHT22;40800;52.704;6.398;2023-12-20T07:22:56;9.60;99.90
54898;DHT22;40800;52.704;6.398;2023-12-20T07:25:21;9.60;99.90
54898;DHT22;40800;52.704;6.398;2023-12-20T07:27:47;9.70;99.90
54898;DHT22;40800;52.704;6.398;2023-12-20T07:30:13;9.50;99.90
54898;DHT22;40800;52.704;6.398;2023-12-20T07:32:38;9.50;99.90
54898;DHT22;40800;52.704;6.398;2023-12-20T07:35:04;9.50;99.90
54898;DHT22;40800;52.704;6.398;2023-12-20T07:37:31;9.60;99.90
54898;DHT22;40800;52.704;6.398;2023-12-20T07:39:56;9.70;99.90
54898;DHT22;40800;52.704;6.398;2023-12-20T07:42:22;9.70;99.90
54898;DHT22;40800;52.704;6.398;2023-12-20T07:44:47;9.60;99.90
54898;DHT22;40800;52.704;6.398;2023-12-20T07:47:13;9.80;99.90
54898;DHT22;40800;52.704;6.398;2023-12-20T07:49:42;9.60;99.90
54898;DHT22;40800;52.704;6.398;2023-12-20T07:52:08;9.70;99.90
54898;DHT22;40800;52.704;6.398;2023-12-20T07:54:33;9.60;99.90
54898;DHT22;40800;52.704;6.398;2023-12-20T07:56:59;9.70;99.90
54898;DHT22;40800;52.704;6.398;2023-12-20T07:59:24;9.70;99.90
54898;DHT22;40800;52.704;6.398;2023-12-20T08:01:50;9.80;99.90
54898;DHT22;40800;52.704;6.398;2023-12-20T08:04:15;9.70;99.90
54898;DHT22;40800;52.704;6.398;2023-12-20T08:06:41;9.60;99.90
54898;DHT22;40800;52.704;6.398;2023-12-20T08:09:06;9.60;99.90
54898;DHT22;40800;52.704;6.398;2023-12-20T08:11:32;9.70;99.90
54898;DHT22;40800;52.704;6.398;2023-12-20T08:13:58;9.60;99.90
54898;DHT22;40800;52.704;6.398;2023-12-20T08:16:23;9.80;99.90
54898;DHT22;40800;52.704;6.398;2023-12-20T08:18:50;9.70;99.90
54898;DHT22;40800;52.704;6.398;2023-12-20T08:21:15;9.50;99.90
54898;DHT22;40800;52.704;6.398;2023-12-20T08:23:41;9.60;99.90
54898;DHT22;40800;52.704;6.398;2023-12-20T08:26:07;9.80;99.90
54898;DHT22;40800;52.704;6.398;2023-12-20T08:28:33;9.80;99.90
54898;DHT22;40800;52.704;6.398;2023-12-20T08:30:59;9.80;99.90
54898;DHT22;40800;52.704;6.398;2023-12-20T08:33:25;9.70;99.90
54898;DHT22;40800;52.704;6.398;2023-12-20T08:35:50;10.00;99.90
54898;DHT22;40800;52.704;6.398;2023-12-20T08:38:16;9.80;99.90
54898;DHT22;40800;52.704;6.398;2023-12-20T08:40:43;9.90;99.90
54898;DHT22;40800;52.704;6.398;2023-12-20T08:43:09;9.80;99.90
54898;DHT22;40800;52.704;6.398;2023-12-20T08:45:34;9.80;99.90
54898;DHT22;40800;52.704;6.398;2023-12-20T08:48:00;9.90;99.90
54898;DHT22;40800;52.704;6.398;2023-12-20T08:50:25;10.00;99.90
54898;DHT22;40800;52.704;6.398;2023-12-20T08:52:51;10.00;99.90
54898;DHT22;40800;52.704;6.398;2023-12-20T08:55:17;10.00;99.90
54898;DHT22;40800;52.704;6.398;2023-12-20T08:57:43;10.00;99.90
54898;DHT22;40800;52.704;6.398;2023-12-20T09:00:09;9.90;99.90
54898;DHT22;40800;52.704;6.398;2023-12-20T09:02:35;10.10;99.90
54898;DHT22;40800;52.704;6.398;2023-12-20T09:05:02;10.10;99.90
54898;DHT22;40800;52.704;6.398;2023-12-20T09:07:28;10.10;99.90
54898;DHT22;40800;52.704;6.398;2023-12-20T09:09:55;10.10;99.90
54898;DHT22;40800;52.704;6.398;2023-12-20T09:12:22;10.10;99.90
54898;DHT22;40800;52.704;6.398;2023-12-20T09:14:48;10.10;99.90
54898;DHT22;40800;52.704;6.398;2023-12-20T09:17:15;10.20;99.90
54898;DHT22;40800;52.704;6.398;2023-12-20T09:19:41;10.30;99.90
54898;DHT22;40800;52.704;6.398;2023-12-20T09:22:07;10.30;99.90
54898;DHT22;40800;52.704;6.398;2023-12-20T09:24:33;10.40;99.90
54898;DHT22;40800;52.704;6.398;2023-12-20T09:26:58;10.30;99.90
54898;DHT22;40800;52.704;6.398;2023-12-20T09:29:24;10.40;99.90
54898;DHT22;40800;52.704;6.398;2023-12-20T09:31:50;10.30;99.90
54898;DHT22;40800;52.704;6.398;2023-12-20T09:34:16;10.40;99.90
54898;DHT22;40800;52.704;6.398;2023-12-20T09:36:42;10.30;99.90
54898;DHT22;40800;52.704;6.398;2023-12-20T09:39:17;10.20;99.90
54898;DHT22;40800;52.704;6.398;2023-12-20T09:42:00;10.20;99.90
54898;DHT22;40800;52.704;6.398;2023-12-20T09:44:26;10.20;99.90
54898;DHT22;40800;52.704;6.398;2023-12-20T09:46:52;10.30;99.90
54898;DHT22;40800;52.704;6.398;2023-12-20T09:49:19;10.40;99.90
54898;DHT22;40800;52.704;6.398;2023-12-20T09:51:53;10.40;99.90
54898;DHT22;40800;52.704;6.398;2023-12-20T09:54:19;10.50;99.90
54898;DHT22;40800;52.704;6.398;2023-12-20T09:56:46;10.60;99.90
54898;DHT22;40800;52.704;6.398;2023-12-20T09:59:12;10.70;99.90
54898;DHT22;40800;52.704;6.398;2023-12-20T10:01:42;10.60;99.90
54898;DHT22;40800;52.704;6.398;2023-12-20T10:04:09;10.70;99.90
54898;DHT22;40800;52.704;6.398;2023-12-20T10:06:37;10.60;99.90
54898;DHT22;40800;52.704;6.398;2023-12-20T10:09:03;10.50;99.90
54898;DHT22;40800;52.704;6.398;2023-12-20T10:11:29;9.80;99.90
54898;DHT22;40800;52.704;6.398;2023-12-20T10:14:01;9.40;99.90
54898;DHT22;40800;52.704;6.398;2023-12-20T10:16:27;8.90;99.90
54898;DHT22;40800;52.704;6.398;2023-12-20T10:18:56;8.80;99.90
54898;DHT22;40800;52.704;6.398;2023-12-20T10:21:22;8.50;99.90
54898;DHT22;40800;52.704;6.398;2023-12-20T10:23:51;9.90;99.90
54898;DHT22;40800;52.704;6.398;2023-12-20T10:26:24;8.50;99.90
54898;DHT22;40800;52.704;6.398;2023-12-20T10:28:52;8.70;99.90
54898;DHT22;40800;52.704;6.398;2023-12-20T10:31:34;8.70;99.90
54898;DHT22;40800;52.704;6.398;2023-12-20T10:34:01;8.60;99.90
54898;DHT22;40800;52.704;6.398;2023-12-20T10:36:29;8.60;99.90
54898;DHT22;40800;52.704;6.398;2023-12-20T10:38:55;8.90;99.90
54898;DHT22;40800;52.704;6.398;2023-12-20T10:41:30;8.60;99.90
54898;DHT22;40800;52.704;6.398;2023-12-20T10:44:01;8.60;99.90
54898;DHT22;40800;52.704;6.398;2023-12-20T10:46:27;8.50;99.90
54898;DHT22;40800;52.704;6.398;2023-12-20T10:48:59;8.50;99.90
54898;DHT22;40800;52.704;6.398;2023-12-20T10:51:27;8.60;99.90
54898;DHT22;40800;52.704;6.398;2023-12-20T10:53:55;8.80;99.90
54898;DHT22;40800;52.704;6.398;2023-12-20T10:56:21;8.80;99.90
54898;DHT22;40800;52.704;6.398;2023-12-20T10:58:49;8.70;99.90
54898;DHT22;40800;52.704;6.398;2023-12-20T11:01:19;8.90;99.90
54898;DHT22;40800;52.704;6.398;2023-12-20T11:03:49;8.70;99.90
54898;DHT22;40800;52.704;6.398;2023-12-20T11:06:29;8.70;99.90
54898;DHT22;40800;52.704;6.398;2023-12-20T11:09:20;8.70;99.90
54898;DHT22;40800;52.704;6.398;2023-12-20T11:14:49;8.60;99.90
54898;DHT22;40800;52.704;6.398;2023-12-20T11:17:15;8.70;99.90
54898;DHT22;40800;52.704;6.398;2023-12-20T11:22:22;8.80;99.90
54898;DHT22;40800;52.704;6.398;2023-12-20T11:24:48;8.90;99.90
54898;DHT22;40800;52.704;6.398;2023-12-20T11:27:14;8.90;99.90
54898;DHT22;40800;52.704;6.398;2023-12-20T11:29:41;8.70;99.90
54898;DHT22;40800;52.704;6.398;2023-12-20T11:35:01;8.80;99.90
54898;DHT22;40800;52.704;6.398;2023-12-20T11:37:31;9.00;99.90
54898;DHT22;40800;52.704;6.398;2023-12-20T11:40:05;8.80;99.90
54898;DHT22;40800;52.704;6.398;2023-12-20T11:42:38;8.80;99.90
54898;DHT22;40800;52.704;6.398;2023-12-20T11:45:05;8.90;99.90
54898;DHT22;40800;52.704;6.398;2023-12-20T11:47:31;8.80;99.90
54898;DHT22;40800;52.704;6.398;2023-12-20T11:49:57;8.90;99.90
54898;DHT22;40800;52.704;6.398;2023-12-20T11:52:22;9.00;99.90
54898;DHT22;40800;52.704;6.398;2023-12-20T11:54:48;8.90;99.90
54898;DHT22;40800;52.704;6.398;2023-12-20T11:57:14;8.80;99.90
54898;DHT22;40800;52.704;6.398;2023-12-20T11:59:39;8.90;99.90
54898;DHT22;40800;52.704;6.398;2023-12-20T12:02:05;8.90;99.90
54898;DHT22;40800;52.704;6.398;2023-12-20T12:04:31;9.10;99.90
54898;DHT22;40800;52.704;6.398;2023-12-20T12:06:56;8.90;99.90
54898;DHT22;40800;52.704;6.398;2023-12-20T12:09:22;11.00;99.90
54898;DHT22;40800;52.704;6.398;2023-12-20T12:11:48;9.00;99.90
54898;DHT22;40800;52.704;6.398;2023-12-20T12:14:13;8.90;99.90
54898;DHT22;40800;52.704;6.398;2023-12-20T12:16:41;8.70;99.90
54898;DHT22;40800;52.704;6.398;2023-12-20T12:19:06;8.80;99.90
54898;DHT22;40800;52.704;6.398;2023-12-20T12:21:32;8.80;99.90
54898;DHT22;40800;52.704;6.398;2023-12-20T12:24:11;8.70;99.90
54898;DHT22;40800;52.704;6.398;2023-12-20T12:26:37;8.80;99.90
54898;DHT22;40800;52.704;6.398;2023-12-20T12:29:02;8.80;99.90
54898;DHT22;40800;52.704;6.398;2023-12-20T12:31:28;8.70;99.90
54898;DHT22;40800;52.704;6.398;2023-12-20T12:33:56;8.70;99.90
54898;DHT22;40800;52.704;6.398;2023-12-20T12:41:05;8.70;99.90
54898;DHT22;40800;52.704;6.398;2023-12-20T12:43:31;8.60;99.90
54898;DHT22;40800;52.704;6.398;2023-12-20T12:45:57;8.70;99.90
54898;DHT22;40800;52.704;6.398;2023-12-20T12:48:23;8.60;99.90
54898;DHT22;40800;52.704;6.398;2023-12-20T12:50:48;8.70;99.90
54898;DHT22;40800;52.704;6.398;2023-12-20T12:53:14;8.50;99.90
54898;DHT22;40800;52.704;6.398;2023-12-20T12:55:39;8.60;99.90
54898;DHT22;40800;52.704;6.398;2023-12-20T12:58:05;8.50;99.90
54898;DHT22;40800;52.704;6.398;2023-12-20T13:00:30;8.40;99.90
54898;DHT22;40800;52.704;6.398;2023-12-20T13:02:56;8.40;99.90
54898;DHT22;40800;52.704;6.398;2023-12-20T13:05:21;8.60;99.90
54898;DHT22;40800;52.704;6.398;2023-12-20T13:07:47;8.30;99.90
54898;DHT22;40800;52.704;6.398;2023-12-20T13:10:13;8.30;99.90
54898;DHT22;40800;52.704;6.398;2023-12-20T13:12:42;8.80;99.90
54898;DHT22;40800;52.704;6.398;2023-12-20T13:15:07;8.30;99.90
54898;DHT22;40800;52.704;6.398;2023-12-20T13:17:34;8.60;99.90
54898;DHT22;40800;52.704;6.398;2023-12-20T13:20:00;8.20;99.90
54898;DHT22;40800;52.704;6.398;2023-12-20T13:22:25;8.20;99.90
54898;DHT22;40800;52.704;6.398;2023-12-20T13:24:51;8.60;99.90
54898;DHT22;40800;52.704;6.398;2023-12-20T13:27:16;8.30;99.90
54898;DHT22;40800;52.704;6.398;2023-12-20T13:29:42;8.40;99.90
54898;DHT22;40800;52.704;6.398;2023-12-20T13:32:07;8.50;99.90
54898;DHT22;40800;52.704;6.398;2023-12-20T13:34:33;8.10;99.90
54898;DHT22;40800;52.704;6.398;2023-12-20T13:36:58;8.50;99.90
54898;DHT22;40800;52.704;6.398;2023-12-20T13:39:24;8.30;99.90
54898;DHT22;40800;52.704;6.398;2023-12-20T13:41:50;8.30;99.90
54898;DHT22;40800;52.704;6.398;2023-12-20T13:44:15;8.60;99.90
54898;DHT22;40800;52.704;6.398;2023-12-20T13:46:41;8.30;99.90
54898;DHT22;40800;52.704;6.398;2023-12-20T13:49:07;8.50;99.90
54898;DHT22;40800;52.704;6.398;2023-12-20T13:51:32;8.50;99.90
54898;DHT22;40800;52.704;6.398;2023-12-20T13:53:58;8.40;99.90
54898;DHT22;40800;52.704;6.398;2023-12-20T13:56:25;8.60;99.90
54898;DHT22;40800;52.704;6.398;2023-12-20T13:58:50;8.40;99.90
54898;DHT22;40800;52.704;6.398;2023-12-20T14:01:16;8.70;99.90
54898;DHT22;40800;52.704;6.398;2023-12-20T14:03:42;8.50;99.90
54898;DHT22;40800;52.704;6.398;2023-12-20T14:06:07;8.50;99.90
54898;DHT22;40800;52.704;6.398;2023-12-20T14:08:33;8.90;99.90
54898;DHT22;40800;52.704;6.398;2023-12-20T14:10:59;9.00;99.90
54898;DHT22;40800;52.704;6.398;2023-12-20T14:13:26;8.90;99.90
54898;DHT22;40800;52.704;6.398;2023-12-20T14:15:52;8.60;99.90
54898;DHT22;40800;52.704;6.398;2023-12-20T14:18:19;8.70;99.90
54898;DHT22;40800;52.704;6.398;2023-12-20T14:20:45;9.10;99.90
54898;DHT22;40800;52.704;6.398;2023-12-20T14:23:12;8.90;99.90
54898;DHT22;40800;52.704;6.398;2023-12-20T14:25:41;8.80;99.90
54898;DHT22;40800;52.704;6.398;2023-12-20T14:28:06;9.00;99.90
54898;DHT22;40800;52.704;6.398;2023-12-20T14:30:32;9.50;99.90
54898;DHT22;40800;52.704;6.398;2023-12-20T14:32:57;9.20;99.90
54898;DHT22;40800;52.704;6.398;2023-12-20T14:35:23;9.40;99.90
54898;DHT22;40800;52.704;6.398;2023-12-20T14:37:49;9.60;99.90
54898;DHT22;40800;52.704;6.398;2023-12-20T14:40:15;9.60;99.90
54898;DHT22;40800;52.704;6.398;2023-12-20T14:42:45;9.90;99.90
54898;DHT22;40800;52.704;6.398;2023-12-20T14:45:11;9.80;99.90
54898;DHT22;40800;52.704;6.398;2023-12-20T14:47:38;9.80;99.90
54898;DHT22;40800;52.704;6.398;2023-12-20T14:50:04;9.70;99.90
54898;DHT22;40800;52.704;6.398;2023-12-20T14:52:31;9.70;99.90
54898;DHT22;40800;52.704;6.398;2023-12-20T14:54:56;10.00;99.90
54898;DHT22;40800;52.704;6.398;2023-12-20T14:57:22;9.70;99.90
54898;DHT22;40800;52.704;6.398;2023-12-20T14:59:47;9.70;99.90
54898;DHT22;40800;52.704;6.398;2023-12-20T15:02:13;9.70;99.90
54898;DHT22;40800;52.704;6.398;2023-12-20T15:04:38;9.90;99.90
54898;DHT22;40800;52.704;6.398;2023-12-20T15:07:04;9.70;99.90
54898;DHT22;40800;52.704;6.398;2023-12-20T15:09:31;10.00;99.90
54898;DHT22;40800;52.704;6.398;2023-12-20T15:11:57;10.00;99.90
54898;DHT22;40800;52.704;6.398;2023-12-20T15:14:23;9.90;99.90
54898;DHT22;40800;52.704;6.398;2023-12-20T15:16:48;10.00;99.90
54898;DHT22;40800;52.704;6.398;2023-12-20T15:19:14;9.70;99.90
54898;DHT22;40800;52.704;6.398;2023-12-20T15:21:40;9.90;99.90
54898;DHT22;40800;52.704;6.398;2023-12-20T15:24:11;9.90;99.90
54898;DHT22;40800;52.704;6.398;2023-12-20T15:26:42;9.90;99.90
54898;DHT22;40800;52.704;6.398;2023-12-20T15:29:12;9.60;99.90
54898;DHT22;40800;52.704;6.398;2023-12-20T15:31:43;9.60;99.90
54898;DHT22;40800;52.704;6.398;2023-12-20T15:34:08;9.80;99.90
54898;DHT22;40800;52.704;6.398;2023-12-20T15:36:34;9.70;99.90
54898;DHT22;40800;52.704;6.398;2023-12-20T15:39:00;9.70;99.90
54898;DHT22;40800;52.704;6.398;2023-12-20T15:41:25;9.80;99.90
54898;DHT22;40800;52.704;6.398;2023-12-20T15:43:51;9.90;99.90
54898;DHT22;40800;52.704;6.398;2023-12-20T15:46:16;9.60;99.90
54898;DHT22;40800;52.704;6.398;2023-12-20T15:48:42;9.60;99.90
54898;DHT22;40800;52.704;6.398;2023-12-20T15:51:09;9.70;99.90
54898;DHT22;40800;52.704;6.398;2023-12-20T15:53:34;9.80;99.90
54898;DHT22;40800;52.704;6.398;2023-12-20T15:56:00;9.90;99.90
54898;DHT22;40800;52.704;6.398;2023-12-20T15:58:26;9.90;99.90